sensor_id;sensor_type;location;lat;lon;timestamp;P1;durP1;ratioP1;P2;durP2;ratioP2
5606;SDS011;2825;53.116;9.392;2022-08-19T00:00:27;14.53;;;5.40;;
5606;SDS011;2825;53.116;9.392;2022-08-19T00:02:53;16.33;;;4.83;;
5606;SDS011;2825;53.116;9.392;2022-08-19T00:05:19;16.17;;;5.73;;
5606;SDS011;2825;53.116;9.392;2022-08-19T00:07:46;14.30;;;5.30;;
5606;SDS011;2825;53.116;9.392;2022-08-19T00:10:14;14.33;;;5.20;;
5606;SDS011;2825;53.116;9.392;2022-08-19T00:12:40;18.33;;;5.50;;
5606;SDS011;2825;53.116;9.392;2022-08-19T00:15:08;14.00;;;5.00;;
5606;SDS011;2825;53.116;9.392;2022-08-19T00:17:37;15.23;;;4.73;;
5606;SDS011;2825;53.116;9.392;2022-08-19T00:20:09;15.40;;;5.37;;
5606;SDS011;2825;53.116;9.392;2022-08-19T00:22:38;16.47;;;5.93;;
5606;SDS011;2825;53.116;9.392;2022-08-19T00:25:06;14.93;;;5.00;;
5606;SDS011;2825;53.116;9.392;2022-08-19T00:27:32;18.13;;;4.57;;
5606;SDS011;2825;53.116;9.392;2022-08-19T00:29:58;16.47;;;4.93;;
5606;SDS011;2825;53.116;9.392;2022-08-19T00:32:25;18.10;;;5.90;;
5606;SDS011;2825;53.116;9.392;2022-08-19T00:34:51;15.83;;;5.90;;
5606;SDS011;2825;53.116;9.392;2022-08-19T00:37:18;18.47;;;6.93;;
5606;SDS011;2825;53.116;9.392;2022-08-19T00:39:48;15.27;;;6.00;;
5606;SDS011;2825;53.116;9.392;2022-08-19T00:42:14;15.00;;;5.97;;
5606;SDS011;2825;53.116;9.392;2022-08-19T00:44:40;17.10;;;6.20;;
5606;SDS011;2825;53.116;9.392;2022-08-19T00:47:06;16.60;;;6.33;;
5606;SDS011;2825;53.116;9.392;2022-08-19T00:52:09;16.50;;;6.40;;
5606;SDS011;2825;53.116;9.392;2022-08-19T00:54:39;16.20;;;5.90;;
5606;SDS011;2825;53.116;9.392;2022-08-19T00:57:08;16.30;;;6.43;;
5606;SDS011;2825;53.116;9.392;2022-08-19T00:59:38;18.30;;;6.80;;
5606;SDS011;2825;53.116;9.392;2022-08-19T01:02:05;19.20;;;6.10;;
5606;SDS011;2825;53.116;9.392;2022-08-19T01:04:31;17.37;;;7.20;;
5606;SDS011;2825;53.116;9.392;2022-08-19T01:06:57;16.63;;;6.40;;
5606;SDS011;2825;53.116;9.392;2022-08-19T01:09:24;14.80;;;6.10;;
5606;SDS011;2825;53.116;9.392;2022-08-19T01:11:50;17.20;;;7.30;;
5606;SDS011;2825;53.116;9.392;2022-08-19T01:14:16;19.63;;;6.43;;
5606;SDS011;2825;53.116;9.392;2022-08-19T01:16:43;17.07;;;7.70;;
5606;SDS011;2825;53.116;9.392;2022-08-19T01:19:26;20.20;;;7.30;;
5606;SDS011;2825;53.116;9.392;2022-08-19T01:22:02;16.83;;;7.27;;
5606;SDS011;2825;53.116;9.392;2022-08-19T01:25:01;16.07;;;6.20;;
5606;SDS011;2825;53.116;9.392;2022-08-19T01:27:27;15.87;;;6.00;;
5606;SDS011;2825;53.116;9.392;2022-08-19T01:30:03;18.87;;;6.60;;
5606;SDS011;2825;53.116;9.392;2022-08-19T01:32:30;17.67;;;7.37;;
5606;SDS011;2825;53.116;9.392;2022-08-19T01:34:56;18.00;;;6.67;;
5606;SDS011;2825;53.116;9.392;2022-08-19T01:37:23;16.97;;;7.43;;
5606;SDS011;2825;53.116;9.392;2022-08-19T01:39:48;18.60;;;7.60;;
5606;SDS011;2825;53.116;9.392;2022-08-19T01:42:15;17.20;;;7.20;;
5606;SDS011;2825;53.116;9.392;2022-08-19T01:44:40;17.37;;;7.40;;
5606;SDS011;2825;53.116;9.392;2022-08-19T01:47:06;16.17;;;7.27;;
5606;SDS011;2825;53.116;9.392;2022-08-19T01:49:34;18.93;;;7.53;;
5606;SDS011;2825;53.116;9.392;2022-08-19T01:52:01;19.00;;;6.77;;
5606;SDS011;2825;53.116;9.392;2022-08-19T01:54:26;16.77;;;6.97;;
5606;SDS011;2825;53.116;9.392;2022-08-19T01:56:53;17.80;;;7.70;;
5606;SDS011;2825;53.116;9.392;2022-08-19T01:59:22;17.20;;;6.30;;
5606;SDS011;2825;53.116;9.392;2022-08-19T02:01:49;19.10;;;7.37;;
5606;SDS011;2825;53.116;9.392;2022-08-19T02:04:15;17.30;;;6.47;;
5606;SDS011;2825;53.116;9.392;2022-08-19T02:06:40;18.33;;;6.90;;
5606;SDS011;2825;53.116;9.392;2022-08-19T02:09:06;21.23;;;6.73;;
5606;SDS011;2825;53.116;9.392;2022-08-19T02:11:34;20.43;;;7.73;;
5606;SDS011;2825;53.116;9.392;2022-08-19T02:14:02;16.97;;;7.77;;
5606;SDS011;2825;53.116;9.392;2022-08-19T02:16:30;17.87;;;7.13;;
5606;SDS011;2825;53.116;9.392;2022-08-19T02:18:56;16.90;;;6.93;;
5606;SDS011;2825;53.116;9.392;2022-08-19T02:21:22;16.70;;;6.67;;
5606;SDS011;2825;53.116;9.392;2022-08-19T02:23:48;17.73;;;7.00;;
5606;SDS011;2825;53.116;9.392;2022-08-19T02:26:15;15.40;;;6.47;;
5606;SDS011;2825;53.116;9.392;2022-08-19T02:28:42;16.07;;;6.87;;
5606;SDS011;2825;53.116;9.392;2022-08-19T02:31:17;17.83;;;7.70;;
5606;SDS011;2825;53.116;9.392;2022-08-19T02:33:45;15.40;;;7.47;;
5606;SDS011;2825;53.116;9.392;2022-08-19T02:36:12;14.97;;;6.60;;
5606;SDS011;2825;53.116;9.392;2022-08-19T02:38:39;15.27;;;6.40;;
5606;SDS011;2825;53.116;9.392;2022-08-19T02:41:16;17.60;;;7.23;;
5606;SDS011;2825;53.116;9.392;2022-08-19T02:43:44;17.37;;;7.20;;
5606;SDS011;2825;53.116;9.392;2022-08-19T02:46:21;16.00;;;7.03;;
5606;SDS011;2825;53.116;9.392;2022-08-19T02:48:53;19.73;;;6.43;;
5606;SDS011;2825;53.116;9.392;2022-08-19T02:51:22;15.00;;;6.60;;
5606;SDS011;2825;53.116;9.392;2022-08-19T02:53:53;16.77;;;6.03;;
5606;SDS011;2825;53.116;9.392;2022-08-19T02:56:19;17.70;;;6.97;;
5606;SDS011;2825;53.116;9.392;2022-08-19T02:58:46;17.50;;;6.90;;
5606;SDS011;2825;53.116;9.392;2022-08-19T03:01:19;16.80;;;6.60;;
5606;SDS011;2825;53.116;9.392;2022-08-19T03:03:50;15.83;;;6.27;;
5606;SDS011;2825;53.116;9.392;2022-08-19T03:06:16;16.43;;;6.40;;
5606;SDS011;2825;53.116;9.392;2022-08-19T03:08:43;15.40;;;6.33;;
5606;SDS011;2825;53.116;9.392;2022-08-19T03:11:18;14.17;;;5.93;;
5606;SDS011;2825;53.116;9.392;2022-08-19T03:13:47;17.03;;;7.37;;
5606;SDS011;2825;53.116;9.392;2022-08-19T03:16:14;18.10;;;5.80;;
5606;SDS011;2825;53.116;9.392;2022-08-19T03:18:41;17.40;;;7.47;;
5606;SDS011;2825;53.116;9.392;2022-08-19T03:21:06;16.87;;;6.90;;
5606;SDS011;2825;53.116;9.392;2022-08-19T03:23:32;14.90;;;6.27;;
5606;SDS011;2825;53.116;9.392;2022-08-19T03:26:02;16.47;;;7.43;;
5606;SDS011;2825;53.116;9.392;2022-08-19T03:28:30;17.13;;;6.60;;
5606;SDS011;2825;53.116;9.392;2022-08-19T03:31:01;18.53;;;6.50;;
5606;SDS011;2825;53.116;9.392;2022-08-19T03:33:33;16.27;;;6.23;;
5606;SDS011;2825;53.116;9.392;2022-08-19T03:36:32;16.07;;;7.60;;
5606;SDS011;2825;53.116;9.392;2022-08-19T03:38:53;15.13;;;6.00;;
5606;SDS011;2825;53.116;9.392;2022-08-19T03:41:22;16.00;;;6.20;;
5606;SDS011;2825;53.116;9.392;2022-08-19T03:43:50;17.53;;;8.80;;
5606;SDS011;2825;53.116;9.392;2022-08-19T03:46:19;15.67;;;5.70;;
5606;SDS011;2825;53.116;9.392;2022-08-19T03:48:50;17.20;;;7.27;;
5606;SDS011;2825;53.116;9.392;2022-08-19T03:51:20;18.23;;;7.00;;
5606;SDS011;2825;53.116;9.392;2022-08-19T03:53:46;15.97;;;7.00;;
5606;SDS011;2825;53.116;9.392;2022-08-19T03:56:12;15.47;;;6.90;;
5606;SDS011;2825;53.116;9.392;2022-08-19T03:58:39;16.70;;;7.70;;
5606;SDS011;2825;53.116;9.392;2022-08-19T04:01:12;20.50;;;7.17;;
5606;SDS011;2825;53.116;9.392;2022-08-19T04:03:40;17.73;;;7.30;;
5606;SDS011;2825;53.116;9.392;2022-08-19T04:06:11;18.30;;;7.43;;
5606;SDS011;2825;53.116;9.392;2022-08-19T04:08:39;17.17;;;7.17;;
5606;SDS011;2825;53.116;9.392;2022-08-19T04:11:09;14.37;;;5.47;;
5606;SDS011;2825;53.116;9.392;2022-08-19T04:13:36;15.80;;;5.73;;
5606;SDS011;2825;53.116;9.392;2022-08-19T04:16:03;16.20;;;5.63;;
5606;SDS011;2825;53.116;9.392;2022-08-19T04:18:30;15.07;;;5.90;;
5606;SDS011;2825;53.116;9.392;2022-08-19T04:20:57;15.83;;;5.10;;
5606;SDS011;2825;53.116;9.392;2022-08-19T04:23:24;17.90;;;6.07;;
5606;SDS011;2825;53.116;9.392;2022-08-19T04:25:50;22.53;;;8.27;;
5606;SDS011;2825;53.116;9.392;2022-08-19T04:28:16;15.10;;;5.40;;
5606;SDS011;2825;53.116;9.392;2022-08-19T04:30:46;17.50;;;5.37;;
5606;SDS011;2825;53.116;9.392;2022-08-19T04:33:16;18.73;;;6.90;;
5606;SDS011;2825;53.116;9.392;2022-08-19T04:35:45;19.50;;;5.90;;
5606;SDS011;2825;53.116;9.392;2022-08-19T04:38:14;16.00;;;5.53;;
5606;SDS011;2825;53.116;9.392;2022-08-19T04:40:45;19.90;;;6.37;;
5606;SDS011;2825;53.116;9.392;2022-08-19T04:43:31;17.43;;;5.47;;
5606;SDS011;2825;53.116;9.392;2022-08-19T04:45:58;15.97;;;6.00;;
5606;SDS011;2825;53.116;9.392;2022-08-19T04:48:34;18.03;;;5.77;;
5606;SDS011;2825;53.116;9.392;2022-08-19T04:51:00;21.43;;;6.53;;
5606;SDS011;2825;53.116;9.392;2022-08-19T04:53:31;16.80;;;7.03;;
5606;SDS011;2825;53.116;9.392;2022-08-19T04:55:59;16.97;;;6.00;;
5606;SDS011;2825;53.116;9.392;2022-08-19T04:58:28;17.50;;;6.13;;
5606;SDS011;2825;53.116;9.392;2022-08-19T05:00:54;18.33;;;6.87;;
5606;SDS011;2825;53.116;9.392;2022-08-19T05:03:20;17.83;;;6.60;;
5606;SDS011;2825;53.116;9.392;2022-08-19T05:05:46;17.63;;;8.63;;
5606;SDS011;2825;53.116;9.392;2022-08-19T05:08:14;17.80;;;8.33;;
5606;SDS011;2825;53.116;9.392;2022-08-19T05:10:45;17.80;;;7.37;;
5606;SDS011;2825;53.116;9.392;2022-08-19T05:13:12;16.87;;;7.97;;
5606;SDS011;2825;53.116;9.392;2022-08-19T05:15:39;20.57;;;8.83;;
5606;SDS011;2825;53.116;9.392;2022-08-19T05:18:05;20.00;;;9.07;;
5606;SDS011;2825;53.116;9.392;2022-08-19T05:20:49;17.90;;;7.53;;
5606;SDS011;2825;53.116;9.392;2022-08-19T05:23:33;19.10;;;9.10;;
5606;SDS011;2825;53.116;9.392;2022-08-19T05:25:59;20.43;;;8.17;;
5606;SDS011;2825;53.116;9.392;2022-08-19T05:28:25;19.60;;;9.47;;
5606;SDS011;2825;53.116;9.392;2022-08-19T05:30:50;21.00;;;11.10;;
5606;SDS011;2825;53.116;9.392;2022-08-19T05:33:17;21.37;;;9.93;;
5606;SDS011;2825;53.116;9.392;2022-08-19T05:35:43;19.87;;;9.00;;
5606;SDS011;2825;53.116;9.392;2022-08-19T05:38:09;18.70;;;9.13;;
5606;SDS011;2825;53.116;9.392;2022-08-19T05:40:36;17.80;;;8.80;;
5606;SDS011;2825;53.116;9.392;2022-08-19T05:43:04;18.60;;;8.50;;
5606;SDS011;2825;53.116;9.392;2022-08-19T05:45:31;20.17;;;9.30;;
5606;SDS011;2825;53.116;9.392;2022-08-19T05:47:56;20.03;;;8.93;;
5606;SDS011;2825;53.116;9.392;2022-08-19T05:50:23;20.97;;;9.27;;
5606;SDS011;2825;53.116;9.392;2022-08-19T05:52:51;19.93;;;10.27;;
5606;SDS011;2825;53.116;9.392;2022-08-19T05:55:17;20.70;;;8.33;;
5606;SDS011;2825;53.116;9.392;2022-08-19T05:57:45;20.73;;;9.20;;
5606;SDS011;2825;53.116;9.392;2022-08-19T06:00:12;22.80;;;10.33;;
5606;SDS011;2825;53.116;9.392;2022-08-19T06:02:38;20.87;;;9.57;;
5606;SDS011;2825;53.116;9.392;2022-08-19T06:05:05;21.07;;;9.53;;
5606;SDS011;2825;53.116;9.392;2022-08-19T06:07:34;19.30;;;8.40;;
5606;SDS011;2825;53.116;9.392;2022-08-19T06:10:01;18.90;;;8.10;;
5606;SDS011;2825;53.116;9.392;2022-08-19T06:12:28;18.60;;;8.33;;
5606;SDS011;2825;53.116;9.392;2022-08-19T06:14:58;19.43;;;8.73;;
5606;SDS011;2825;53.116;9.392;2022-08-19T06:17:24;19.10;;;7.80;;
5606;SDS011;2825;53.116;9.392;2022-08-19T06:19:51;18.97;;;8.43;;
5606;SDS011;2825;53.116;9.392;2022-08-19T06:22:17;21.37;;;9.07;;
5606;SDS011;2825;53.116;9.392;2022-08-19T06:24:42;20.63;;;9.60;;
5606;SDS011;2825;53.116;9.392;2022-08-19T06:27:09;21.70;;;9.73;;
5606;SDS011;2825;53.116;9.392;2022-08-19T06:29:35;20.60;;;10.10;;
5606;SDS011;2825;53.116;9.392;2022-08-19T06:32:02;20.50;;;8.90;;
5606;SDS011;2825;53.116;9.392;2022-08-19T06:34:31;25.40;;;9.80;;
5606;SDS011;2825;53.116;9.392;2022-08-19T06:36:59;20.17;;;9.97;;
5606;SDS011;2825;53.116;9.392;2022-08-19T06:39:27;19.50;;;9.20;;
5606;SDS011;2825;53.116;9.392;2022-08-19T06:41:56;19.47;;;8.83;;
5606;SDS011;2825;53.116;9.392;2022-08-19T06:44:23;20.37;;;9.43;;
5606;SDS011;2825;53.116;9.392;2022-08-19T06:46:52;18.67;;;8.50;;
5606;SDS011;2825;53.116;9.392;2022-08-19T06:49:18;22.00;;;10.97;;
5606;SDS011;2825;53.116;9.392;2022-08-19T06:51:45;20.83;;;10.30;;
5606;SDS011;2825;53.116;9.392;2022-08-19T06:54:12;19.60;;;9.27;;
5606;SDS011;2825;53.116;9.392;2022-08-19T06:56:39;22.87;;;10.57;;
5606;SDS011;2825;53.116;9.392;2022-08-19T06:59:12;22.27;;;9.63;;
5606;SDS011;2825;53.116;9.392;2022-08-19T07:01:47;20.97;;;10.10;;
5606;SDS011;2825;53.116;9.392;2022-08-19T07:04:15;20.60;;;9.30;;
5606;SDS011;2825;53.116;9.392;2022-08-19T07:06:43;20.23;;;10.33;;
5606;SDS011;2825;53.116;9.392;2022-08-19T07:09:10;21.90;;;10.67;;
5606;SDS011;2825;53.116;9.392;2022-08-19T07:11:46;21.40;;;9.30;;
5606;SDS011;2825;53.116;9.392;2022-08-19T07:14:15;19.50;;;8.57;;
5606;SDS011;2825;53.116;9.392;2022-08-19T07:16:43;20.07;;;8.77;;
5606;SDS011;2825;53.116;9.392;2022-08-19T07:19:11;21.23;;;9.70;;
5606;SDS011;2825;53.116;9.392;2022-08-19T07:21:37;22.97;;;8.90;;
5606;SDS011;2825;53.116;9.392;2022-08-19T07:24:03;19.87;;;8.77;;
5606;SDS011;2825;53.116;9.392;2022-08-19T07:26:30;18.77;;;8.53;;
5606;SDS011;2825;53.116;9.392;2022-08-19T07:28:58;21.20;;;9.87;;
5606;SDS011;2825;53.116;9.392;2022-08-19T07:31:27;19.40;;;8.10;;
5606;SDS011;2825;53.116;9.392;2022-08-19T07:33:54;20.83;;;8.80;;
5606;SDS011;2825;53.116;9.392;2022-08-19T07:36:23;19.50;;;8.67;;
5606;SDS011;2825;53.116;9.392;2022-08-19T07:38:57;19.20;;;8.30;;
5606;SDS011;2825;53.116;9.392;2022-08-19T07:41:25;20.33;;;9.23;;
5606;SDS011;2825;53.116;9.392;2022-08-19T07:43:53;21.20;;;9.13;;
5606;SDS011;2825;53.116;9.392;2022-08-19T07:46:20;18.57;;;7.90;;
5606;SDS011;2825;53.116;9.392;2022-08-19T07:48:46;18.30;;;8.00;;
5606;SDS011;2825;53.116;9.392;2022-08-19T07:51:15;19.73;;;8.30;;
5606;SDS011;2825;53.116;9.392;2022-08-19T07:53:44;19.40;;;8.47;;
5606;SDS011;2825;53.116;9.392;2022-08-19T07:56:12;22.00;;;8.80;;
5606;SDS011;2825;53.116;9.392;2022-08-19T07:58:40;18.27;;;8.20;;
5606;SDS011;2825;53.116;9.392;2022-08-19T08:01:08;21.47;;;9.47;;
5606;SDS011;2825;53.116;9.392;2022-08-19T08:03:36;29.40;;;12.00;;
5606;SDS011;2825;53.116;9.392;2022-08-19T08:06:21;19.80;;;9.13;;
5606;SDS011;2825;53.116;9.392;2022-08-19T08:09:06;19.07;;;7.73;;
5606;SDS011;2825;53.116;9.392;2022-08-19T08:11:45;24.17;;;8.63;;
5606;SDS011;2825;53.116;9.392;2022-08-19T08:14:45;18.63;;;7.70;;
5606;SDS011;2825;53.116;9.392;2022-08-19T08:17:14;21.60;;;7.90;;
5606;SDS011;2825;53.116;9.392;2022-08-19T08:19:41;19.30;;;8.23;;
5606;SDS011;2825;53.116;9.392;2022-08-19T08:22:08;18.37;;;7.60;;
5606;SDS011;2825;53.116;9.392;2022-08-19T08:24:54;17.70;;;6.90;;
5606;SDS011;2825;53.116;9.392;2022-08-19T08:27:23;20.50;;;8.10;;
5606;SDS011;2825;53.116;9.392;2022-08-19T08:29:49;16.87;;;7.10;;
5606;SDS011;2825;53.116;9.392;2022-08-19T08:32:15;19.07;;;7.67;;
5606;SDS011;2825;53.116;9.392;2022-08-19T08:34:41;18.60;;;7.13;;
5606;SDS011;2825;53.116;9.392;2022-08-19T08:37:07;20.70;;;8.70;;
5606;SDS011;2825;53.116;9.392;2022-08-19T08:39:33;19.77;;;7.43;;
5606;SDS011;2825;53.116;9.392;2022-08-19T08:44:47;18.60;;;8.00;;
5606;SDS011;2825;53.116;9.392;2022-08-19T08:47:29;17.40;;;6.70;;
5606;SDS011;2825;53.116;9.392;2022-08-19T08:50:12;16.60;;;5.80;;
5606;SDS011;2825;53.116;9.392;2022-08-19T08:52:44;19.37;;;8.07;;
5606;SDS011;2825;53.116;9.392;2022-08-19T08:55:14;19.13;;;7.93;;
5606;SDS011;2825;53.116;9.392;2022-08-19T08:57:49;18.87;;;8.30;;
5606;SDS011;2825;53.116;9.392;2022-08-19T09:00:22;18.87;;;6.90;;
5606;SDS011;2825;53.116;9.392;2022-08-19T09:02:51;16.73;;;6.30;;
5606;SDS011;2825;53.116;9.392;2022-08-19T09:05:18;21.60;;;6.50;;
5606;SDS011;2825;53.116;9.392;2022-08-19T09:15:38;20.97;;;8.87;;
5606;SDS011;2825;53.116;9.392;2022-08-19T09:18:09;19.43;;;7.17;;
5606;SDS011;2825;53.116;9.392;2022-08-19T09:20:35;18.00;;;7.00;;
5606;SDS011;2825;53.116;9.392;2022-08-19T09:23:00;21.63;;;7.17;;
5606;SDS011;2825;53.116;9.392;2022-08-19T09:25:26;18.60;;;6.80;;
5606;SDS011;2825;53.116;9.392;2022-08-19T09:27:52;17.87;;;6.80;;
5606;SDS011;2825;53.116;9.392;2022-08-19T09:30:23;21.77;;;7.20;;
5606;SDS011;2825;53.116;9.392;2022-08-19T09:32:51;18.20;;;7.40;;
5606;SDS011;2825;53.116;9.392;2022-08-19T09:35:18;18.30;;;7.33;;
5606;SDS011;2825;53.116;9.392;2022-08-19T09:37:47;19.57;;;7.60;;
5606;SDS011;2825;53.116;9.392;2022-08-19T09:40:14;17.70;;;7.07;;
5606;SDS011;2825;53.116;9.392;2022-08-19T09:42:40;19.37;;;6.77;;
5606;SDS011;2825;53.116;9.392;2022-08-19T09:45:08;20.07;;;8.00;;
5606;SDS011;2825;53.116;9.392;2022-08-19T09:47:34;18.13;;;7.37;;
5606;SDS011;2825;53.116;9.392;2022-08-19T09:50:03;18.17;;;6.20;;
5606;SDS011;2825;53.116;9.392;2022-08-19T09:52:30;18.40;;;6.37;;
5606;SDS011;2825;53.116;9.392;2022-08-19T09:54:56;22.00;;;7.43;;
5606;SDS011;2825;53.116;9.392;2022-08-19T09:57:22;19.20;;;6.67;;
5606;SDS011;2825;53.116;9.392;2022-08-19T09:59:47;18.80;;;7.07;;
5606;SDS011;2825;53.116;9.392;2022-08-19T10:02:13;20.13;;;8.33;;
5606;SDS011;2825;53.116;9.392;2022-08-19T10:04:39;20.17;;;7.30;;
5606;SDS011;2825;53.116;9.392;2022-08-19T10:07:23;18.80;;;7.73;;
5606;SDS011;2825;53.116;9.392;2022-08-19T10:09:49;17.20;;;5.53;;
5606;SDS011;2825;53.116;9.392;2022-08-19T10:12:15;19.20;;;8.00;;
5606;SDS011;2825;53.116;9.392;2022-08-19T10:14:41;18.03;;;6.57;;
5606;SDS011;2825;53.116;9.392;2022-08-19T10:17:07;22.97;;;7.67;;
5606;SDS011;2825;53.116;9.392;2022-08-19T10:19:33;18.70;;;6.70;;
5606;SDS011;2825;53.116;9.392;2022-08-19T10:22:04;19.70;;;6.63;;
5606;SDS011;2825;53.116;9.392;2022-08-19T10:24:31;18.50;;;6.63;;
5606;SDS011;2825;53.116;9.392;2022-08-19T10:26:59;18.63;;;7.40;;
5606;SDS011;2825;53.116;9.392;2022-08-19T10:29:28;20.17;;;9.00;;
5606;SDS011;2825;53.116;9.392;2022-08-19T10:31:55;20.50;;;9.93;;
5606;SDS011;2825;53.116;9.392;2022-08-19T10:34:22;21.17;;;9.40;;
5606;SDS011;2825;53.116;9.392;2022-08-19T10:36:48;20.13;;;8.83;;
5606;SDS011;2825;53.116;9.392;2022-08-19T10:39:14;20.03;;;7.50;;
5606;SDS011;2825;53.116;9.392;2022-08-19T10:41:40;24.00;;;8.33;;
5606;SDS011;2825;53.116;9.392;2022-08-19T10:44:09;20.87;;;8.70;;
5606;SDS011;2825;53.116;9.392;2022-08-19T10:46:37;20.30;;;8.50;;
5606;SDS011;2825;53.116;9.392;2022-08-19T10:49:06;19.97;;;8.50;;
5606;SDS011;2825;53.116;9.392;2022-08-19T10:51:34;19.93;;;7.37;;
5606;SDS011;2825;53.116;9.392;2022-08-19T10:54:19;18.70;;;6.30;;
5606;SDS011;2825;53.116;9.392;2022-08-19T10:56:45;22.87;;;10.50;;
5606;SDS011;2825;53.116;9.392;2022-08-19T10:59:17;19.60;;;8.17;;
5606;SDS011;2825;53.116;9.392;2022-08-19T11:01:49;22.70;;;8.60;;
5606;SDS011;2825;53.116;9.392;2022-08-19T11:04:16;19.90;;;8.07;;
5606;SDS011;2825;53.116;9.392;2022-08-19T11:06:43;20.13;;;7.80;;
5606;SDS011;2825;53.116;9.392;2022-08-19T11:09:12;20.50;;;7.10;;
5606;SDS011;2825;53.116;9.392;2022-08-19T11:11:42;21.87;;;6.70;;
5606;SDS011;2825;53.116;9.392;2022-08-19T11:14:09;22.47;;;7.97;;
5606;SDS011;2825;53.116;9.392;2022-08-19T11:16:37;19.83;;;6.80;;
5606;SDS011;2825;53.116;9.392;2022-08-19T11:19:06;20.17;;;8.00;;
5606;SDS011;2825;53.116;9.392;2022-08-19T11:21:35;20.53;;;8.30;;
5606;SDS011;2825;53.116;9.392;2022-08-19T11:24:05;19.80;;;6.83;;
5606;SDS011;2825;53.116;9.392;2022-08-19T11:26:35;17.67;;;5.60;;
5606;SDS011;2825;53.116;9.392;2022-08-19T11:29:02;19.10;;;6.70;;
5606;SDS011;2825;53.116;9.392;2022-08-19T11:31:30;19.13;;;5.70;;
5606;SDS011;2825;53.116;9.392;2022-08-19T11:33:57;20.20;;;6.20;;
5606;SDS011;2825;53.116;9.392;2022-08-19T11:36:26;21.03;;;6.60;;
5606;SDS011;2825;53.116;9.392;2022-08-19T11:38:52;18.70;;;5.87;;
5606;SDS011;2825;53.116;9.392;2022-08-19T11:41:20;19.17;;;6.40;;
5606;SDS011;2825;53.116;9.392;2022-08-19T11:43:48;18.90;;;6.40;;
5606;SDS011;2825;53.116;9.392;2022-08-19T11:46:14;18.30;;;5.10;;
5606;SDS011;2825;53.116;9.392;2022-08-19T11:48:41;18.47;;;5.43;;
5606;SDS011;2825;53.116;9.392;2022-08-19T11:51:12;20.97;;;6.90;;
5606;SDS011;2825;53.116;9.392;2022-08-19T11:53:40;20.00;;;6.40;;
5606;SDS011;2825;53.116;9.392;2022-08-19T11:56:07;21.00;;;6.30;;
5606;SDS011;2825;53.116;9.392;2022-08-19T11:58:34;22.30;;;6.57;;
5606;SDS011;2825;53.116;9.392;2022-08-19T12:01:00;18.53;;;5.53;;
5606;SDS011;2825;53.116;9.392;2022-08-19T12:03:29;17.50;;;4.90;;
5606;SDS011;2825;53.116;9.392;2022-08-19T12:05:55;19.83;;;5.50;;
5606;SDS011;2825;53.116;9.392;2022-08-19T12:08:21;17.83;;;4.53;;
5606;SDS011;2825;53.116;9.392;2022-08-19T12:10:47;19.30;;;5.27;;
5606;SDS011;2825;53.116;9.392;2022-08-19T12:13:13;17.63;;;4.33;;
5606;SDS011;2825;53.116;9.392;2022-08-19T12:15:43;18.40;;;5.67;;
5606;SDS011;2825;53.116;9.392;2022-08-19T12:18:10;18.27;;;5.00;;
5606;SDS011;2825;53.116;9.392;2022-08-19T12:20:38;18.50;;;4.83;;
5606;SDS011;2825;53.116;9.392;2022-08-19T12:23:08;18.07;;;5.17;;
5606;SDS011;2825;53.116;9.392;2022-08-19T12:25:35;17.67;;;4.73;;
5606;SDS011;2825;53.116;9.392;2022-08-19T12:28:02;20.63;;;4.43;;
5606;SDS011;2825;53.116;9.392;2022-08-19T12:30:28;17.40;;;5.07;;
5606;SDS011;2825;53.116;9.392;2022-08-19T12:32:54;16.63;;;3.87;;
5606;SDS011;2825;53.116;9.392;2022-08-19T12:35:20;17.07;;;3.40;;
5606;SDS011;2825;53.116;9.392;2022-08-19T12:37:46;17.80;;;3.53;;
5606;SDS011;2825;53.116;9.392;2022-08-19T12:40:13;16.50;;;3.03;;
5606;SDS011;2825;53.116;9.392;2022-08-19T12:42:40;18.67;;;3.70;;
5606;SDS011;2825;53.116;9.392;2022-08-19T12:45:07;17.40;;;3.60;;
5606;SDS011;2825;53.116;9.392;2022-08-19T12:47:37;17.50;;;4.37;;
5606;SDS011;2825;53.116;9.392;2022-08-19T12:50:04;17.03;;;3.40;;
5606;SDS011;2825;53.116;9.392;2022-08-19T12:52:33;17.90;;;3.50;;
5606;SDS011;2825;53.116;9.392;2022-08-19T12:55:02;16.70;;;2.97;;
5606;SDS011;2825;53.116;9.392;2022-08-19T12:57:30;16.80;;;3.43;;
5606;SDS011;2825;53.116;9.392;2022-08-19T12:59:58;17.00;;;3.60;;
5606;SDS011;2825;53.116;9.392;2022-08-19T13:02:24;16.80;;;2.83;;
5606;SDS011;2825;53.116;9.392;2022-08-19T13:04:51;17.60;;;3.13;;
5606;SDS011;2825;53.116;9.392;2022-08-19T13:07:17;17.40;;;3.13;;
5606;SDS011;2825;53.116;9.392;2022-08-19T13:09:42;16.60;;;2.70;;
5606;SDS011;2825;53.116;9.392;2022-08-19T13:12:08;16.30;;;2.80;;
5606;SDS011;2825;53.116;9.392;2022-08-19T13:14:37;17.13;;;3.00;;
5606;SDS011;2825;53.116;9.392;2022-08-19T13:17:05;16.40;;;2.80;;
5606;SDS011;2825;53.116;9.392;2022-08-19T13:19:31;17.00;;;2.93;;
5606;SDS011;2825;53.116;9.392;2022-08-19T13:21:56;18.30;;;2.80;;
5606;SDS011;2825;53.116;9.392;2022-08-19T13:24:22;16.60;;;2.40;;
5606;SDS011;2825;53.116;9.392;2022-08-19T13:26:48;17.77;;;3.00;;
5606;SDS011;2825;53.116;9.392;2022-08-19T13:29:14;18.50;;;3.50;;
5606;SDS011;2825;53.116;9.392;2022-08-19T13:31:58;17.00;;;2.43;;
5606;SDS011;2825;53.116;9.392;2022-08-19T13:34:42;18.20;;;2.40;;
5606;SDS011;2825;53.116;9.392;2022-08-19T13:37:08;16.67;;;2.27;;
5606;SDS011;2825;53.116;9.392;2022-08-19T13:39:34;16.43;;;2.10;;
5606;SDS011;2825;53.116;9.392;2022-08-19T13:42:00;19.80;;;2.80;;
5606;SDS011;2825;53.116;9.392;2022-08-19T13:44:27;17.37;;;2.60;;
5606;SDS011;2825;53.116;9.392;2022-08-19T13:47:00;17.90;;;2.60;;
5606;SDS011;2825;53.116;9.392;2022-08-19T13:49:30;17.70;;;2.50;;
5606;SDS011;2825;53.116;9.392;2022-08-19T13:51:57;17.20;;;2.60;;
5606;SDS011;2825;53.116;9.392;2022-08-19T13:54:22;18.10;;;3.33;;
5606;SDS011;2825;53.116;9.392;2022-08-19T13:56:48;17.50;;;2.60;;
5606;SDS011;2825;53.116;9.392;2022-08-19T13:59:14;17.20;;;2.47;;
5606;SDS011;2825;53.116;9.392;2022-08-19T14:01:40;18.03;;;2.80;;
5606;SDS011;2825;53.116;9.392;2022-08-19T14:04:06;17.87;;;1.90;;
5606;SDS011;2825;53.116;9.392;2022-08-19T14:06:33;17.73;;;2.83;;
5606;SDS011;2825;53.116;9.392;2022-08-19T14:08:59;16.77;;;2.30;;
5606;SDS011;2825;53.116;9.392;2022-08-19T14:11:27;17.30;;;2.30;;
5606;SDS011;2825;53.116;9.392;2022-08-19T14:13:53;17.63;;;2.43;;
5606;SDS011;2825;53.116;9.392;2022-08-19T14:16:18;16.90;;;2.23;;
5606;SDS011;2825;53.116;9.392;2022-08-19T14:18:44;17.63;;;2.17;;
5606;SDS011;2825;53.116;9.392;2022-08-19T14:21:16;17.63;;;2.57;;
5606;SDS011;2825;53.116;9.392;2022-08-19T14:23:45;17.00;;;1.90;;
5606;SDS011;2825;53.116;9.392;2022-08-19T14:26:13;17.50;;;2.53;;
5606;SDS011;2825;53.116;9.392;2022-08-19T14:28:41;16.83;;;2.20;;
5606;SDS011;2825;53.116;9.392;2022-08-19T14:31:09;17.10;;;2.60;;
5606;SDS011;2825;53.116;9.392;2022-08-19T14:33:41;16.77;;;1.93;;
5606;SDS011;2825;53.116;9.392;2022-08-19T14:36:07;17.07;;;2.37;;
5606;SDS011;2825;53.116;9.392;2022-08-19T14:38:33;17.40;;;2.20;;
5606;SDS011;2825;53.116;9.392;2022-08-19T14:41:32;18.90;;;2.23;;
5606;SDS011;2825;53.116;9.392;2022-08-19T14:43:52;16.90;;;1.77;;
5606;SDS011;2825;53.116;9.392;2022-08-19T14:46:23;17.40;;;1.63;;
5606;SDS011;2825;53.116;9.392;2022-08-19T14:48:50;17.63;;;1.80;;
5606;SDS011;2825;53.116;9.392;2022-08-19T14:51:17;17.27;;;1.90;;
5606;SDS011;2825;53.116;9.392;2022-08-19T14:53:44;17.50;;;2.07;;
5606;SDS011;2825;53.116;9.392;2022-08-19T14:56:13;17.37;;;1.87;;
5606;SDS011;2825;53.116;9.392;2022-08-19T14:58:41;17.87;;;2.30;;
5606;SDS011;2825;53.116;9.392;2022-08-19T15:01:07;18.10;;;2.80;;
5606;SDS011;2825;53.116;9.392;2022-08-19T15:03:33;16.63;;;2.17;;
5606;SDS011;2825;53.116;9.392;2022-08-19T15:06:00;16.67;;;1.90;;
5606;SDS011;2825;53.116;9.392;2022-08-19T15:08:28;16.37;;;2.00;;
5606;SDS011;2825;53.116;9.392;2022-08-19T15:10:55;17.07;;;2.63;;
5606;SDS011;2825;53.116;9.392;2022-08-19T15:13:22;17.87;;;2.30;;
5606;SDS011;2825;53.116;9.392;2022-08-19T15:15:49;17.13;;;2.30;;
5606;SDS011;2825;53.116;9.392;2022-08-19T15:18:16;17.30;;;2.00;;
5606;SDS011;2825;53.116;9.392;2022-08-19T15:20:42;16.53;;;2.00;;